Terminal Aerodrome Forecast
Issued by NWS

Home | Current Version | Previous Version | Text Only | Print | Product List | Glossary On
Versions: 1 2 3 4 5 6 7 8 9 10 11 12 13 14 15 16 17 18 19 20 21 22 23 24 25 26 27 28 29 30 31 32 33 34 35 36 37 38 39 40 41 42 43 44 45 46 47 48 49 50
000
FTAK31 PAFA 300149 AAA
TAFASC
TAF AMD
PASC 300149Z 3002/3024 33010KT 5SM BR SCT010 BKN070
     FM301000 06007KT 1SM BR SCT004 OVC015
     FM301600 03007KT 3SM BR SCT007 OVC040=

USA.gov is the U.S. government's official web portal to all federal, state and local government web resources and services.